sensor_id;sensor_type;location;lat;lon;timestamp;pressure;altitude;pressure_sealevel;temperature;humidity
37132;BME280;23035;50.032;21.978;2023-01-29T00:04:04;64981.19;;;-1.83;100.00
37132;BME280;23035;50.032;21.978;2023-01-29T00:09:08;64983.28;;;-1.81;100.00
37132;BME280;23035;50.032;21.978;2023-01-29T00:14:15;64990.53;;;-1.67;100.00
37132;BME280;23035;50.032;21.978;2023-01-29T00:19:19;65000.72;;;-1.67;100.00
37132;BME280;23035;50.032;21.978;2023-01-29T00:24:24;65010.38;;;-1.55;100.00
37132;BME280;23035;50.032;21.978;2023-01-29T00:29:30;65008.78;;;-1.57;100.00
37132;BME280;23035;50.032;21.978;2023-01-29T00:34:34;65047.66;;;-1.17;100.00
37132;BME280;23035;50.032;21.978;2023-01-29T00:39:39;65045.94;;;-1.21;100.00
37132;BME280;23035;50.032;21.978;2023-01-29T00:44:51;65026.09;;;-1.45;100.00
37132;BME280;23035;50.032;21.978;2023-01-29T00:50:04;65026.81;;;-1.39;100.00
37132;BME280;23035;50.032;21.978;2023-01-29T00:55:10;65041.16;;;-1.26;100.00
37132;BME280;23035;50.032;21.978;2023-01-29T01:00:18;65041.16;;;-1.26;100.00
37132;BME280;23035;50.032;21.978;2023-01-29T01:05:23;65074.00;;;-0.97;100.00
37132;BME280;23035;50.032;21.978;2023-01-29T01:10:29;65099.81;;;-0.65;100.00
37132;BME280;23035;50.032;21.978;2023-01-29T01:15:39;65073.03;;;-0.95;100.00
37132;BME280;23035;50.032;21.978;2023-01-29T01:20:43;65098.13;;;-0.69;100.00
37132;BME280;23035;50.032;21.978;2023-01-29T01:25:48;65084.38;;;-0.79;100.00
37132;BME280;23035;50.032;21.978;2023-01-29T01:30:53;65078.34;;;-0.90;100.00
37132;BME280;23035;50.032;21.978;2023-01-29T01:36:00;65044.44;;;-1.20;100.00
37132;BME280;23035;50.032;21.978;2023-01-29T01:41:05;65109.47;;;-0.65;100.00
37132;BME280;23035;50.032;21.978;2023-01-29T01:46:10;65152.75;;;-0.19;100.00
37132;BME280;23035;50.032;21.978;2023-01-29T01:51:15;65164.97;;;-0.07;100.00
37132;BME280;23035;50.032;21.978;2023-01-29T01:56:23;65084.28;;;-0.82;100.00
37132;BME280;23035;50.032;21.978;2023-01-29T02:01:31;65056.56;;;-1.11;100.00
37132;BME280;23035;50.032;21.978;2023-01-29T02:06:38;65146.88;;;-0.24;100.00
37132;BME280;23035;50.032;21.978;2023-01-29T02:12:02;65263.88;;;0.88;100.00
37132;BME280;23035;50.032;21.978;2023-01-29T02:17:11;65137.41;;;-0.31;100.00
37132;BME280;23035;50.032;21.978;2023-01-29T02:28:13;65253.75;;;0.78;100.00
37132;BME280;23035;50.032;21.978;2023-01-29T02:33:25;65203.66;;;0.27;100.00
37132;BME280;23035;50.032;21.978;2023-01-29T02:38:37;65249.19;;;0.78;100.00
37132;BME280;23035;50.032;21.978;2023-01-29T02:43:50;65290.13;;;1.18;100.00
37132;BME280;23035;50.032;21.978;2023-01-29T02:49:04;65138.38;;;-0.33;100.00
37132;BME280;23035;50.032;21.978;2023-01-29T02:54:17;65179.84;;;0.07;100.00
37132;BME280;23035;50.032;21.978;2023-01-29T02:59:30;65223.44;;;0.49;100.00
37132;BME280;23035;50.032;21.978;2023-01-29T03:04:41;65193.66;;;0.20;100.00
37132;BME280;23035;50.032;21.978;2023-01-29T03:09:51;65206.63;;;0.38;100.00
37132;BME280;23035;50.032;21.978;2023-01-29T03:14:59;65072.94;;;-0.98;100.00
37132;BME280;23035;50.032;21.978;2023-01-29T03:20:38;65140.28;;;-0.36;100.00
37132;BME280;23035;50.032;21.978;2023-01-29T03:25:53;65095.44;;;-0.71;100.00
37132;BME280;23035;50.032;21.978;2023-01-29T03:31:21;65129.25;;;-0.44;100.00
37132;BME280;23035;50.032;21.978;2023-01-29T03:36:49;65273.44;;;0.97;100.00
37132;BME280;23035;50.032;21.978;2023-01-29T03:42:02;65259.19;;;0.85;100.00
37132;BME280;23035;50.032;21.978;2023-01-29T03:47:16;65252.38;;;0.81;100.00
37132;BME280;23035;50.032;21.978;2023-01-29T03:52:26;65156.44;;;-0.15;100.00
37132;BME280;23035;50.032;21.978;2023-01-29T03:57:36;65067.72;;;-1.00;100.00
37132;BME280;23035;50.032;21.978;2023-01-29T04:02:52;65089.50;;;-0.79;100.00
37132;BME280;23035;50.032;21.978;2023-01-29T04:08:04;65085.78;;;-0.83;100.00
37132;BME280;23035;50.032;21.978;2023-01-29T04:13:11;64995.50;;;-1.69;100.00
37132;BME280;23035;50.032;21.978;2023-01-29T04:18:20;65040.63;;;-1.26;100.00
37132;BME280;23035;50.032;21.978;2023-01-29T04:23:42;65013.13;;;-1.50;100.00
37132;BME280;23035;50.032;21.978;2023-01-29T04:28:55;65041.28;;;-1.23;100.00
37132;BME280;23035;50.032;21.978;2023-01-29T04:34:12;65017.91;;;-1.46;100.00
37132;BME280;23035;50.032;21.978;2023-01-29T04:39:24;64987.00;;;-1.78;100.00
37132;BME280;23035;50.032;21.978;2023-01-29T04:44:35;64992.53;;;-1.67;100.00
37132;BME280;23035;50.032;21.978;2023-01-29T04:49:46;64972.78;;;-1.89;100.00
37132;BME280;23035;50.032;21.978;2023-01-29T04:54:59;65051.38;;;-1.13;100.00
37132;BME280;23035;50.032;21.978;2023-01-29T05:00:11;64973.22;;;-1.91;100.00
37132;BME280;23035;50.032;21.978;2023-01-29T05:05:20;64947.22;;;-2.16;100.00
37132;BME280;23035;50.032;21.978;2023-01-29T05:10:25;64952.53;;;-2.11;100.00
37132;BME280;23035;50.032;21.978;2023-01-29T05:15:36;64951.34;;;-2.14;100.00
37132;BME280;23035;50.032;21.978;2023-01-29T05:20:43;65054.00;;;-1.11;100.00
37132;BME280;23035;50.032;21.978;2023-01-29T05:25:49;65133.28;;;-0.33;100.00
37132;BME280;23035;50.032;21.978;2023-01-29T05:30:55;65140.63;;;-0.28;100.00
37132;BME280;23035;50.032;21.978;2023-01-29T05:36:01;65099.59;;;-0.70;100.00
37132;BME280;23035;50.032;21.978;2023-01-29T05:41:06;65086.41;;;-0.80;100.00
37132;BME280;23035;50.032;21.978;2023-01-29T05:46:11;65051.91;;;-1.13;100.00
37132;BME280;23035;50.032;21.978;2023-01-29T05:51:17;65099.47;;;-0.72;100.00
37132;BME280;23035;50.032;21.978;2023-01-29T05:56:21;65125.09;;;-0.45;100.00
37132;BME280;23035;50.032;21.978;2023-01-29T06:01:26;65109.81;;;-0.57;100.00
37132;BME280;23035;50.032;21.978;2023-01-29T06:06:32;65073.13;;;-0.93;100.00
37132;BME280;23035;50.032;21.978;2023-01-29T06:11:36;65052.75;;;-1.17;100.00
37132;BME280;23035;50.032;21.978;2023-01-29T06:16:40;65042.22;;;-1.25;100.00
37132;BME280;23035;50.032;21.978;2023-01-29T06:21:46;65089.72;;;-0.74;100.00
37132;BME280;23035;50.032;21.978;2023-01-29T06:26:50;65093.31;;;-0.73;100.00
37132;BME280;23035;50.032;21.978;2023-01-29T06:31:54;65089.38;;;-0.82;100.00
37132;BME280;23035;50.032;21.978;2023-01-29T06:37:01;65021.09;;;-1.42;100.00
37132;BME280;23035;50.032;21.978;2023-01-29T06:42:05;65081.00;;;-0.88;100.00
37132;BME280;23035;50.032;21.978;2023-01-29T06:47:10;65008.25;;;-1.57;100.00
37132;BME280;23035;50.032;21.978;2023-01-29T06:52:16;64961.66;;;-1.99;100.00
37132;BME280;23035;50.032;21.978;2023-01-29T06:57:20;64984.34;;;-1.80;100.00
37132;BME280;23035;50.032;21.978;2023-01-29T07:02:24;65020.56;;;-1.43;100.00
37132;BME280;23035;50.032;21.978;2023-01-29T07:07:30;65039.16;;;-1.25;100.00
37132;BME280;23035;50.032;21.978;2023-01-29T07:12:35;64961.44;;;-2.05;100.00
37132;BME280;23035;50.032;21.978;2023-01-29T07:17:39;64939.25;;;-2.23;100.00
37132;BME280;23035;50.032;21.978;2023-01-29T07:22:45;64910.19;;;-2.49;100.00
37132;BME280;23035;50.032;21.978;2023-01-29T07:27:49;64964.19;;;-1.99;100.00
37132;BME280;23035;50.032;21.978;2023-01-29T07:32:53;65037.03;;;-1.27;100.00
37132;BME280;23035;50.032;21.978;2023-01-29T07:37:59;64995.28;;;-1.75;100.00
37132;BME280;23035;50.032;21.978;2023-01-29T07:43:05;64962.50;;;-2.04;100.00
37132;BME280;23035;50.032;21.978;2023-01-29T07:48:11;64948.69;;;-2.17;100.00
37132;BME280;23035;50.032;21.978;2023-01-29T07:53:17;64930.13;;;-2.35;100.00
37132;BME280;23035;50.032;21.978;2023-01-29T07:58:21;64895.22;;;-2.66;100.00
37132;BME280;23035;50.032;21.978;2023-01-29T08:03:26;64911.13;;;-2.50;100.00
37132;BME280;23035;50.032;21.978;2023-01-29T08:08:32;64952.41;;;-2.13;100.00
37132;BME280;23035;50.032;21.978;2023-01-29T08:13:36;65032.03;;;-1.37;100.00
37132;BME280;23035;50.032;21.978;2023-01-29T08:18:41;65063.47;;;-1.04;100.00
37132;BME280;23035;50.032;21.978;2023-01-29T08:23:50;65010.47;;;-1.53;100.00
37132;BME280;23035;50.032;21.978;2023-01-29T08:28:55;64910.09;;;-2.51;100.00
37132;BME280;23035;50.032;21.978;2023-01-29T08:33:59;64948.81;;;-2.14;100.00
37132;BME280;23035;50.032;21.978;2023-01-29T08:39:05;64872.66;;;-2.82;100.00
37132;BME280;23035;50.032;21.978;2023-01-29T08:44:10;64897.13;;;-2.69;100.00
37132;BME280;23035;50.032;21.978;2023-01-29T08:49:14;64917.72;;;-2.39;100.00
37132;BME280;23035;50.032;21.978;2023-01-29T08:54:20;64976.72;;;-1.92;100.00
37132;BME280;23035;50.032;21.978;2023-01-29T08:59:25;64959.41;;;-2.04;100.00
37132;BME280;23035;50.032;21.978;2023-01-29T09:04:30;64908.59;;;-2.50;100.00
37132;BME280;23035;50.032;21.978;2023-01-29T09:09:35;64976.41;;;-1.88;100.00
37132;BME280;23035;50.032;21.978;2023-01-29T09:14:40;64967.25;;;-1.99;100.00
37132;BME280;23035;50.032;21.978;2023-01-29T09:19:44;64926.63;;;-2.33;100.00
37132;BME280;23035;50.032;21.978;2023-01-29T09:24:50;64961.53;;;-2.02;100.00
37132;BME280;23035;50.032;21.978;2023-01-29T09:29:55;64980.66;;;-1.84;100.00
37132;BME280;23035;50.032;21.978;2023-01-29T09:35:00;64967.50;;;-1.94;100.00
37132;BME280;23035;50.032;21.978;2023-01-29T09:40:10;65071.44;;;-0.97;100.00
37132;BME280;23035;50.032;21.978;2023-01-29T09:45:22;65103.31;;;-0.66;100.00
37132;BME280;23035;50.032;21.978;2023-01-29T09:50:30;65108.75;;;-0.59;100.00
37132;BME280;23035;50.032;21.978;2023-01-29T09:55:40;65219.19;;;0.45;100.00
37132;BME280;23035;50.032;21.978;2023-01-29T10:00:52;65113.63;;;-0.51;100.00
37132;BME280;23035;50.032;21.978;2023-01-29T10:06:17;65191.97;;;0.16;100.00
37132;BME280;23035;50.032;21.978;2023-01-29T10:11:33;65150.06;;;-0.21;100.00
37132;BME280;23035;50.032;21.978;2023-01-29T10:16:51;65062.09;;;-1.01;100.00
37132;BME280;23035;50.032;21.978;2023-01-29T10:22:14;65083.13;;;-0.85;100.00
37132;BME280;23035;50.032;21.978;2023-01-29T10:27:31;65087.38;;;-0.81;100.00
37132;BME280;23035;50.032;21.978;2023-01-29T10:32:36;65098.66;;;-0.68;100.00
37132;BME280;23035;50.032;21.978;2023-01-29T10:37:42;65073.03;;;-0.95;100.00
37132;BME280;23035;50.032;21.978;2023-01-29T10:42:48;65119.38;;;-0.48;100.00
37132;BME280;23035;50.032;21.978;2023-01-29T10:48:30;65025.75;;;-1.40;100.00
37132;BME280;23035;50.032;21.978;2023-01-29T10:53:45;65047.22;;;-1.15;100.00
37132;BME280;23035;50.032;21.978;2023-01-29T10:58:55;65045.72;;;-1.26;100.00
37132;BME280;23035;50.032;21.978;2023-01-29T11:04:04;65118.84;;;-0.49;100.00
37132;BME280;23035;50.032;21.978;2023-01-29T11:09:16;65158.56;;;-0.13;100.00
37132;BME280;23035;50.032;21.978;2023-01-29T11:14:27;65133.06;;;-0.38;100.00
37132;BME280;23035;50.032;21.978;2023-01-29T11:19:41;65143.81;;;-0.25;100.00
37132;BME280;23035;50.032;21.978;2023-01-29T11:24:46;65085.78;;;-0.83;100.00
37132;BME280;23035;50.032;21.978;2023-01-29T11:30:19;65118.41;;;-0.47;100.00
37132;BME280;23035;50.032;21.978;2023-01-29T11:35:25;65064.53;;;-1.03;100.00
37132;BME280;23035;50.032;21.978;2023-01-29T11:40:35;65174.41;;;-0.01;100.00
37132;BME280;23035;50.032;21.978;2023-01-29T11:45:41;65126.16;;;-0.44;100.00
37132;BME280;23035;50.032;21.978;2023-01-29T11:50:52;65084.19;;;-0.84;100.00
37132;BME280;23035;50.032;21.978;2023-01-29T11:55:56;65189.41;;;0.16;100.00
37132;BME280;23035;50.032;21.978;2023-01-29T12:01:03;65126.78;;;-0.41;100.00
37132;BME280;23035;50.032;21.978;2023-01-29T12:06:15;65133.06;;;-0.38;100.00
37132;BME280;23035;50.032;21.978;2023-01-29T12:11:27;65102.25;;;-0.67;100.00
37132;BME280;23035;50.032;21.978;2023-01-29T12:16:37;65150.59;;;-0.21;100.00
37132;BME280;23035;50.032;21.978;2023-01-29T12:21:46;65102.88;;;-0.64;100.00
37132;BME280;23035;50.032;21.978;2023-01-29T12:26:56;65053.38;;;-1.14;100.00
37132;BME280;23035;50.032;21.978;2023-01-29T12:32:10;65053.38;;;-1.14;100.00
37132;BME280;23035;50.032;21.978;2023-01-29T12:37:21;65082.06;;;-0.87;100.00
37132;BME280;23035;50.032;21.978;2023-01-29T12:42:26;65062.63;;;-1.00;100.00
37132;BME280;23035;50.032;21.978;2023-01-29T12:47:37;65102.25;;;-0.67;100.00
37132;BME280;23035;50.032;21.978;2023-01-29T12:52:46;65084.91;;;-0.79;100.00
37132;BME280;23035;50.032;21.978;2023-01-29T12:57:55;65080.88;;;-0.90;100.00
37132;BME280;23035;50.032;21.978;2023-01-29T13:03:07;65124.13;;;-0.44;97.87
37132;BME280;23035;50.032;21.978;2023-01-29T13:08:22;65049.78;;;-1.15;100.00
37132;BME280;23035;50.032;21.978;2023-01-29T13:13:30;65046.91;;;-1.23;100.00
37132;BME280;23035;50.032;21.978;2023-01-29T13:18:40;65044.25;;;-1.25;100.00
37132;BME280;23035;50.032;21.978;2023-01-29T13:23:49;65007.72;;;-1.58;100.00
37132;BME280;23035;50.032;21.978;2023-01-29T13:28:55;65052.00;;;-1.10;100.00
37132;BME280;23035;50.032;21.978;2023-01-29T13:34:10;65059.22;;;-1.08;100.00
37132;BME280;23035;50.032;21.978;2023-01-29T13:39:21;65041.38;;;-1.21;100.00
37132;BME280;23035;50.032;21.978;2023-01-29T13:44:28;65002.94;;;-1.62;100.00
37132;BME280;23035;50.032;21.978;2023-01-29T13:49:37;64994.44;;;-1.70;100.00
37132;BME280;23035;50.032;21.978;2023-01-29T13:54:50;65007.06;;;-1.61;100.00
37132;BME280;23035;50.032;21.978;2023-01-29T13:59:55;64995.72;;;-1.64;100.00
37132;BME280;23035;50.032;21.978;2023-01-29T14:05:35;65025.34;;;-1.38;100.00
37132;BME280;23035;50.032;21.978;2023-01-29T14:10:42;65051.47;;;-1.11;100.00
37132;BME280;23035;50.032;21.978;2023-01-29T14:16:25;65027.25;;;-1.41;100.00
37132;BME280;23035;50.032;21.978;2023-01-29T14:21:35;65006.66;;;-1.59;100.00
37132;BME280;23035;50.032;21.978;2023-01-29T14:26:42;65003.69;;;-1.57;100.00
37132;BME280;23035;50.032;21.978;2023-01-29T14:31:50;64988.09;;;-1.77;100.00
37132;BME280;23035;50.032;21.978;2023-01-29T14:37:00;65037.44;;;-1.29;100.00
37132;BME280;23035;50.032;21.978;2023-01-29T14:42:17;65041.69;;;-1.25;100.00
37132;BME280;23035;50.032;21.978;2023-01-29T14:53:17;65006.25;;;-1.57;100.00
37132;BME280;23035;50.032;21.978;2023-01-29T14:58:27;65001.88;;;-1.63;100.00
37132;BME280;23035;50.032;21.978;2023-01-29T15:03:38;65001.97;;;-1.61;100.00
37132;BME280;23035;50.032;21.978;2023-01-29T15:08:52;64997.22;;;-1.65;100.00
37132;BME280;23035;50.032;21.978;2023-01-29T15:14:03;65028.31;;;-1.28;100.00
37132;BME280;23035;50.032;21.978;2023-01-29T15:19:14;65000.16;;;-1.67;100.00
37132;BME280;23035;50.032;21.978;2023-01-29T15:24:22;65043.81;;;-1.23;100.00
37132;BME280;23035;50.032;21.978;2023-01-29T15:29:27;65081.00;;;-0.88;100.00
37132;BME280;23035;50.032;21.978;2023-01-29T15:34:32;65050.72;;;-1.17;100.00
37132;BME280;23035;50.032;21.978;2023-01-29T15:39:42;65063.38;;;-1.07;100.00
37132;BME280;23035;50.032;21.978;2023-01-29T15:44:47;65030.13;;;-1.34;100.00
37132;BME280;23035;50.032;21.978;2023-01-29T15:49:51;65062.09;;;-1.01;100.00
37132;BME280;23035;50.032;21.978;2023-01-29T15:55:02;65022.69;;;-1.41;100.00
37132;BME280;23035;50.032;21.978;2023-01-29T16:00:20;65065.06;;;-1.03;100.00
37132;BME280;23035;50.032;21.978;2023-01-29T16:05:27;65109.38;;;-0.55;100.00
37132;BME280;23035;50.032;21.978;2023-01-29T16:10:36;65101.19;;;-0.68;100.00
37132;BME280;23035;50.032;21.978;2023-01-29T16:15:53;65096.31;;;-0.75;100.00
37132;BME280;23035;50.032;21.978;2023-01-29T16:20:59;65053.38;;;-1.14;100.00
37132;BME280;23035;50.032;21.978;2023-01-29T16:26:13;64978.00;;;-1.86;100.00
37132;BME280;23035;50.032;21.978;2023-01-29T16:31:26;65023.13;;;-1.43;100.00
37132;BME280;23035;50.032;21.978;2023-01-29T16:36:31;65044.25;;;-1.25;100.00
37132;BME280;23035;50.032;21.978;2023-01-29T16:41:38;65043.72;;;-1.26;100.00
37132;BME280;23035;50.032;21.978;2023-01-29T16:46:43;65097.34;;;-0.74;100.00
37132;BME280;23035;50.032;21.978;2023-01-29T16:51:48;65045.50;;;-1.19;100.00
37132;BME280;23035;50.032;21.978;2023-01-29T16:56:57;65040.84;;;-1.21;100.00
37132;BME280;23035;50.032;21.978;2023-01-29T17:02:16;65091.84;;;-0.72;100.00
37132;BME280;23035;50.032;21.978;2023-01-29T17:07:23;65053.38;;;-1.14;100.00
37132;BME280;23035;50.032;21.978;2023-01-29T17:12:30;65043.28;;;-1.24;100.00
37132;BME280;23035;50.032;21.978;2023-01-29T17:17:35;65031.50;;;-1.37;100.00
37132;BME280;23035;50.032;21.978;2023-01-29T17:22:40;65007.94;;;-1.53;100.00
37132;BME280;23035;50.032;21.978;2023-01-29T17:27:46;65018.75;;;-1.50;100.00
37132;BME280;23035;50.032;21.978;2023-01-29T17:32:53;65070.69;;;-1.02;100.00
37132;BME280;23035;50.032;21.978;2023-01-29T17:37:58;65020.34;;;-1.48;100.00
37132;BME280;23035;50.032;21.978;2023-01-29T17:43:04;65032.03;;;-1.37;100.00
37132;BME280;23035;50.032;21.978;2023-01-29T17:48:13;65052.31;;;-1.15;100.00
37132;BME280;23035;50.032;21.978;2023-01-29T17:53:19;65121.78;;;-0.51;100.00
37132;BME280;23035;50.032;21.978;2023-01-29T17:58:26;65030.66;;;-1.33;100.00
37132;BME280;23035;50.032;21.978;2023-01-29T18:03:31;65027.34;;;-1.39;100.00
37132;BME280;23035;50.032;21.978;2023-01-29T18:08:37;65024.81;;;-1.39;100.00
37132;BME280;23035;50.032;21.978;2023-01-29T18:13:44;65028.53;;;-1.35;100.00
37132;BME280;23035;50.032;21.978;2023-01-29T18:18:49;65043.94;;;-1.21;100.00
37132;BME280;23035;50.032;21.978;2023-01-29T18:23:54;64981.38;;;-1.78;100.00
37132;BME280;23035;50.032;21.978;2023-01-29T18:28:59;64975.13;;;-1.82;100.00
37132;BME280;23035;50.032;21.978;2023-01-29T18:34:03;65010.06;;;-1.51;100.00
37132;BME280;23035;50.032;21.978;2023-01-29T18:39:09;65015.16;;;-1.51;100.00
37132;BME280;23035;50.032;21.978;2023-01-29T18:44:15;65071.44;;;-0.97;100.00
37132;BME280;23035;50.032;21.978;2023-01-29T18:49:19;65005.72;;;-1.57;100.00
37132;BME280;23035;50.032;21.978;2023-01-29T18:54:23;65071.34;;;-0.87;100.00
37132;BME280;23035;50.032;21.978;2023-01-29T18:59:30;65122.00;;;-0.46;100.00
37132;BME280;23035;50.032;21.978;2023-01-29T19:04:34;65052.84;;;-1.14;100.00
37132;BME280;23035;50.032;21.978;2023-01-29T19:09:39;65036.50;;;-1.28;100.00
37132;BME280;23035;50.032;21.978;2023-01-29T19:14:45;65010.06;;;-1.51;100.00
37132;BME280;23035;50.032;21.978;2023-01-29T19:19:49;65033.19;;;-1.33;100.00
37132;BME280;23035;50.032;21.978;2023-01-29T19:31:04;64987.88;;;-1.69;100.00
37132;BME280;23035;50.032;21.978;2023-01-29T19:36:10;64977.47;;;-1.87;100.00
37132;BME280;23035;50.032;21.978;2023-01-29T19:41:15;65020.47;;;-1.46;100.00
37132;BME280;23035;50.032;21.978;2023-01-29T19:46:21;64958.47;;;-2.03;100.00
37132;BME280;23035;50.032;21.978;2023-01-29T19:51:26;65047.00;;;-1.20;100.00
37132;BME280;23035;50.032;21.978;2023-01-29T19:56:33;65046.56;;;-1.18;100.00
37132;BME280;23035;50.032;21.978;2023-01-29T20:01:39;65131.69;;;-0.34;100.00
37132;BME280;23035;50.032;21.978;2023-01-29T20:06:43;64992.97;;;-1.69;100.00
37132;BME280;23035;50.032;21.978;2023-01-29T20:11:48;65063.56;;;-1.02;100.00
37132;BME280;23035;50.032;21.978;2023-01-29T20:16:54;65050.72;;;-1.17;100.00
37132;BME280;23035;50.032;21.978;2023-01-29T20:21:59;65089.50;;;-0.79;100.00
37132;BME280;23035;50.032;21.978;2023-01-29T20:27:04;65043.28;;;-1.24;100.00
37132;BME280;23035;50.032;21.978;2023-01-29T20:32:10;65103.31;;;-0.66;100.00
37132;BME280;23035;50.032;21.978;2023-01-29T20:37:16;65026.81;;;-1.39;100.00
37132;BME280;23035;50.032;21.978;2023-01-29T20:42:28;65136.47;;;-0.30;100.00
37132;BME280;23035;50.032;21.978;2023-01-29T20:47:34;65023.00;;;-1.46;100.00
37132;BME280;23035;50.032;21.978;2023-01-29T20:52:40;65083.13;;;-0.85;100.00
37132;BME280;23035;50.032;21.978;2023-01-29T20:57:45;65104.81;;;-0.67;100.00
37132;BME280;23035;50.032;21.978;2023-01-29T21:03:09;65013.03;;;-1.53;100.00
37132;BME280;23035;50.032;21.978;2023-01-29T21:08:14;65053.59;;;-1.09;100.00
37132;BME280;23035;50.032;21.978;2023-01-29T21:13:19;64994.53;;;-1.68;100.00
37132;BME280;23035;50.032;21.978;2023-01-29T21:18:25;65051.38;;;-1.13;100.00
37132;BME280;23035;50.032;21.978;2023-01-29T21:23:29;65031.09;;;-1.35;100.00
37132;BME280;23035;50.032;21.978;2023-01-29T21:28:34;64974.81;;;-1.89;100.00
37132;BME280;23035;50.032;21.978;2023-01-29T21:33:40;64968.84;;;-1.97;100.00
37132;BME280;23035;50.032;21.978;2023-01-29T21:38:44;64942.75;;;-2.25;100.00
37132;BME280;23035;50.032;21.978;2023-01-29T21:43:49;64971.31;;;-1.88;100.00
37132;BME280;23035;50.032;21.978;2023-01-29T21:48:55;64980.66;;;-1.84;100.00
37132;BME280;23035;50.032;21.978;2023-01-29T21:53:59;64971.41;;;-1.97;100.00
37132;BME280;23035;50.032;21.978;2023-01-29T21:59:05;64959.53;;;-2.02;100.00
37132;BME280;23035;50.032;21.978;2023-01-29T22:04:11;65019.72;;;-1.51;100.00
37132;BME280;23035;50.032;21.978;2023-01-29T22:09:17;64983.41;;;-1.79;100.00
37132;BME280;23035;50.032;21.978;2023-01-29T22:14:22;65059.44;;;-1.03;100.00
37132;BME280;23035;50.032;21.978;2023-01-29T22:19:28;65045.09;;;-1.17;100.00
37132;BME280;23035;50.032;21.978;2023-01-29T22:24:32;64982.78;;;-1.82;100.00
37132;BME280;23035;50.032;21.978;2023-01-29T22:29:37;65033.41;;;-1.28;100.00
37132;BME280;23035;50.032;21.978;2023-01-29T22:34:43;65007.84;;;-1.55;100.00
37132;BME280;23035;50.032;21.978;2023-01-29T22:39:48;65020.03;;;-1.43;100.00
37132;BME280;23035;50.032;21.978;2023-01-29T22:44:52;65037.56;;;-1.27;100.00
37132;BME280;23035;50.032;21.978;2023-01-29T22:49:58;65042.22;;;-1.25;100.00
37132;BME280;23035;50.032;21.978;2023-01-29T22:55:05;64987.66;;;-1.75;100.00
37132;BME280;23035;50.032;21.978;2023-01-29T23:00:11;65098.66;;;-0.68;100.00
37132;BME280;23035;50.032;21.978;2023-01-29T23:05:17;65036.38;;;-1.30;100.00
37132;BME280;23035;50.032;21.978;2023-01-29T23:10:21;65037.34;;;-1.32;100.00
37132;BME280;23035;50.032;21.978;2023-01-29T23:15:26;65108.84;;;-0.56;100.00
37132;BME280;23035;50.032;21.978;2023-01-29T23:20:32;65002.63;;;-1.58;100.00
37132;BME280;23035;50.032;21.978;2023-01-29T23:25:36;65082.47;;;-0.89;100.00
37132;BME280;23035;50.032;21.978;2023-01-29T23:30:58;65065.59;;;-1.02;100.00
37132;BME280;23035;50.032;21.978;2023-01-29T23:36:05;65111.81;;;-0.58;100.00
37132;BME280;23035;50.032;21.978;2023-01-29T23:41:10;65056.66;;;-1.08;100.00
37132;BME280;23035;50.032;21.978;2023-01-29T23:46:14;65015.78;;;-1.48;100.00
37132;BME280;23035;50.032;21.978;2023-01-29T23:51:20;65135.72;;;-0.35;100.00
37132;BME280;23035;50.032;21.978;2023-01-29T23:56:25;65086.94;;;-0.79;100.00
